Messwerte Christiansted/Saint Croix

Temperatur

Temperatur
°C
1603472400 13.00 13.00 32
1603476000 14.00 14.00 32
1603479600 15.00 15.00 31
1603483200 16.00 16.00 31
1603486800 17.00 17.00 31
1603490400 18.00 18.00 29
1603494000 19.00 19.00 29
1603497600 20.00 20.00 29
1603501200 21.00 21.00 29
1603504800 22.00 22.00 29
1603508400 23.00 23.00
1603512000 0.00 0.00 29
1603515600 1.00 1.00 29
1603519200 2.00 2.00 29
1603522800 3.00 3.00 29
1603526400 4.00 4.00
1603530000 5.00 5.00 29
1603533600 6.00 6.00 29
1603537200 7.00 7.00 29
1603540800 8.00 8.00 30
1603544400 9.00 9.00 31
1603548000 10.00 10.00 32
1603551600 11.00 11.00 32
1603555200 12.00 12.00 32

Aktuellste Messwerte

Wettercharakter
Wetter: recht sonnig
Temperatur
32 °C
Feuchtigkeit
65 %
Wind
30 km/hWindrichtung: Ost
Böen
45 km/h
Luftdruck
1015 hPa
Messzeit: 24. Oktober 2020, 13.00Datenquelle: METAR

Weitere Messstationen in der Nähe

Messstation Temperatur Entfernung
Charlotte Amalie 32 °C 72 km
Road Town 31 °C 88 km
Roosevelt Roads 31 °C 107 km
San Juan 32 °C 148 km
Philipsburg / St.Maarten 31 °C 181 km
Aquadilla 31 °C 262 km
Gerald's/Montserrat 30 °C 295 km

Wind

Windrichtung Böen Mittelwind
° km/h km/h
1603472400 13.00 12.00 - 13.00 110° 20
1603476000 14.00 13.00 - 14.00 100° 25
1603479600 15.00 14.00 - 15.00 80° 25
1603483200 16.00 15.00 - 16.00 110° 20
1603486800 17.00 16.00 - 17.00 100° 20
1603490400 18.00 17.00 - 18.00 100° 20
1603494000 19.00 18.00 - 19.00 100° 20
1603497600 20.00 19.00 - 20.00 100° 25
1603501200 21.00 20.00 - 21.00 100° 20
1603504800 22.00 21.00 - 22.00 90° 25
1603508400 23.00 22.00 - 23.00
1603512000 0.00 23.00 - 0.00 110° 35 25
1603515600 1.00 0.00 - 1.00 110° 20
1603519200 2.00 1.00 - 2.00 110° 20
1603522800 3.00 2.00 - 3.00 100° 20
1603526400 4.00 3.00 - 4.00
1603530000 5.00 4.00 - 5.00 110° 20
1603533600 6.00 5.00 - 6.00 110° 20
1603537200 7.00 6.00 - 7.00 110° 20
1603540800 8.00 7.00 - 8.00 110° 20
1603544400 9.00 8.00 - 9.00 110° 20
1603548000 10.00 9.00 - 10.00 90° 25
1603551600 11.00 10.00 - 11.00 100° 25
1603555200 12.00 11.00 - 12.00 90° 25

Ihre Wetterstation

Fehlt Ihre Wetterstation auf unserem Portal?

Schreiben Sie an network@meteonews.ch

Klima

Wann ist es am wärmsten? Wann regnet es am wenigsten? Unsere Klimadaten geben Auskunft.